createdAt,value
2023-04-29T00:02:58.608Z,10.59
2023-04-29T00:06:02.134Z,10.60
2023-04-29T00:09:04.874Z,10.64
2023-04-29T00:12:07.703Z,10.60
2023-04-29T00:15:10.921Z,10.56
2023-04-29T00:18:14.467Z,10.51
2023-04-29T00:21:17.285Z,10.51
2023-04-29T00:24:20.435Z,10.42
2023-04-29T00:27:23.068Z,10.32
2023-04-29T00:30:25.961Z,10.35
2023-04-29T00:33:28.798Z,10.24
2023-04-29T00:36:32.759Z,10.21
2023-04-29T00:39:35.464Z,10.28
2023-04-29T00:42:40.516Z,10.22
2023-04-29T00:45:43.948Z,10.15
2023-04-29T00:48:46.687Z,10.08
2023-04-29T00:51:50.362Z,10.12
2023-04-29T00:54:53.015Z,10.05
2023-04-29T00:57:56.419Z,9.97
2023-04-29T01:01:00.810Z,9.98
2023-04-29T01:04:05.715Z,9.95
2023-04-29T01:07:18.477Z,9.96
2023-04-29T01:10:30.129Z,9.97
2023-04-29T01:13:40.440Z,10.05
2023-04-29T01:16:49.556Z,10.15
2023-04-29T01:19:57.977Z,10.06
2023-04-29T01:23:01.555Z,10.01
2023-04-29T01:26:06.221Z,10.01
2023-04-29T01:29:51.631Z,9.99
2023-04-29T01:33:04.918Z,9.97
2023-04-29T01:36:46.996Z,10.03
2023-04-29T01:40:17.566Z,10.02
2023-04-29T01:43:34.516Z,10.02
2023-04-29T01:46:54.248Z,10.01
2023-04-29T01:50:00.380Z,10.03
2023-04-29T01:53:03.190Z,9.94
2023-04-29T01:56:07.388Z,10.03
2023-04-29T01:59:34.052Z,9.96
2023-04-29T02:02:42.653Z,9.80
2023-04-29T02:05:59.884Z,9.79
2023-04-29T02:09:02.955Z,9.82
2023-04-29T02:12:08.069Z,9.92
2023-04-29T02:15:10.902Z,9.95
2023-04-29T02:18:13.651Z,9.99
2023-04-29T02:21:16.734Z,10.05
2023-04-29T02:24:19.649Z,10.05
2023-04-29T02:27:24.056Z,10.06
2023-04-29T02:30:26.911Z,10.14
2023-04-29T02:33:30.336Z,10.16
2023-04-29T02:36:33.005Z,10.20
2023-04-29T02:39:35.949Z,10.16
2023-04-29T02:42:38.899Z,10.13
2023-04-29T02:45:42.871Z,10.15
2023-04-29T02:51:50.276Z,10.18
2023-04-29T02:54:53.685Z,10.14
2023-04-29T02:57:56.431Z,10.06
2023-04-29T03:00:59.284Z,10.18
2023-04-29T03:04:02.412Z,10.16
2023-04-29T03:07:05.740Z,10.19
2023-04-29T03:10:09.349Z,10.18
2023-04-29T03:13:15.803Z,10.14
2023-04-29T03:16:20.003Z,10.18
2023-04-29T03:19:22.917Z,10.22
2023-04-29T03:22:27.034Z,10.21
2023-04-29T03:25:30.517Z,10.22
2023-04-29T03:28:36.465Z,10.22
2023-04-29T03:31:39.426Z,10.12
2023-04-29T03:34:42.438Z,10.09
2023-04-29T03:37:56.398Z,10.04
2023-04-29T03:41:04.689Z,9.99
2023-04-29T03:44:07.828Z,10.01
2023-04-29T03:47:10.601Z,9.99
2023-04-29T03:50:13.596Z,10.07
2023-04-29T03:53:17.658Z,10.15
2023-04-29T03:56:20.911Z,10.22
2023-04-29T03:59:23.682Z,10.21
2023-04-29T04:02:28.114Z,10.21
2023-04-29T04:05:31.564Z,10.22
2023-04-29T04:08:41.765Z,10.25
2023-04-29T04:11:51.177Z,10.29
2023-04-29T04:14:55.859Z,10.28
2023-04-29T04:17:58.629Z,10.31
2023-04-29T04:21:06.852Z,10.40
2023-04-29T04:24:12.081Z,10.42
2023-04-29T04:27:15.205Z,10.44
2023-04-29T04:30:22.118Z,10.18
2023-04-29T04:33:26.981Z,10.24
2023-04-29T04:36:29.817Z,10.20
2023-04-29T04:39:33.175Z,10.22
2023-04-29T04:42:36.525Z,10.30
2023-04-29T04:45:39.394Z,10.41
2023-04-29T04:48:43.506Z,10.64
2023-04-29T04:51:49.270Z,10.84
2023-04-29T04:54:52.160Z,10.95
2023-04-29T04:57:59.647Z,10.87
2023-04-29T05:01:03.151Z,10.89
2023-04-29T05:04:06.261Z,11.00
2023-04-29T05:07:09.529Z,11.39
2023-04-29T05:10:33.739Z,11.93
2023-04-29T05:13:37.872Z,12.31
2023-04-29T05:16:40.930Z,12.68
2023-04-29T05:19:44.256Z,13.01
2023-04-29T05:22:47.832Z,12.84
2023-04-29T05:25:51.185Z,12.53
2023-04-29T05:28:54.338Z,12.50
2023-04-29T05:31:59.689Z,12.25
2023-04-29T05:35:03.725Z,12.23
2023-04-29T05:38:08.128Z,12.16
2023-04-29T05:41:17.072Z,12.32
2023-04-29T05:44:23.479Z,12.45
2023-04-29T05:47:26.494Z,12.26
2023-04-29T05:50:29.412Z,12.65
2023-04-29T05:53:33.612Z,12.99
2023-04-29T05:56:36.472Z,13.38
2023-04-29T05:59:39.591Z,13.21
2023-04-29T06:02:51.049Z,13.28
2023-04-29T06:06:01.451Z,13.42
2023-04-29T06:09:27.874Z,13.64
2023-04-29T06:12:35.072Z,13.87
2023-04-29T06:15:37.980Z,14.24
2023-04-29T06:18:41.828Z,14.48
2023-04-29T06:21:44.721Z,14.06
2023-04-29T06:24:50.020Z,13.66
2023-04-29T06:28:08.309Z,13.42
2023-04-29T06:31:11.254Z,13.22
2023-04-29T06:34:14.353Z,13.11
2023-04-29T06:37:37.993Z,13.16
2023-04-29T06:41:01.381Z,12.88
2023-04-29T06:44:36.921Z,12.53
2023-04-29T06:47:59.902Z,12.66
2023-04-29T06:51:14.437Z,12.92
2023-04-29T06:54:17.340Z,13.25
2023-04-29T06:57:21.269Z,13.46
2023-04-29T07:00:24.212Z,13.66
2023-04-29T07:03:31.046Z,13.60
2023-04-29T07:06:34.051Z,13.44
2023-04-29T07:09:37.235Z,13.11
2023-04-29T07:12:40.485Z,12.73
2023-04-29T07:15:43.516Z,12.70
2023-04-29T07:18:46.399Z,12.65
2023-04-29T07:21:49.300Z,12.74
2023-04-29T07:24:56.076Z,12.62
2023-04-29T07:27:58.960Z,12.47
2023-04-29T07:31:01.848Z,12.36
2023-04-29T07:34:04.978Z,12.33
2023-04-29T07:37:07.856Z,12.21
2023-04-29T07:40:10.910Z,12.15
2023-04-29T07:43:14.372Z,11.88
2023-04-29T07:46:18.576Z,11.98
2023-04-29T07:49:21.337Z,11.86
2023-04-29T07:52:24.156Z,12.03
2023-04-29T07:55:27.702Z,12.00
2023-04-29T07:58:32.667Z,11.99
2023-04-29T08:01:35.787Z,12.32
2023-04-29T08:04:42.848Z,12.59
2023-04-29T08:07:52.084Z,12.44
2023-04-29T08:10:54.938Z,12.56
2023-04-29T08:14:00.569Z,12.64
2023-04-29T08:17:06.807Z,12.84
2023-04-29T08:20:09.969Z,12.84
2023-04-29T08:23:13.105Z,12.59
2023-04-29T08:26:16.067Z,12.60
2023-04-29T08:29:18.839Z,12.51
2023-04-29T08:32:21.534Z,12.53
2023-04-29T08:35:24.348Z,12.50
2023-04-29T08:38:27.543Z,12.46
2023-04-29T08:41:33.002Z,12.36
2023-04-29T08:44:37.138Z,12.39
2023-04-29T08:47:40.402Z,12.40
2023-04-29T08:50:43.683Z,12.39
2023-04-29T08:53:46.785Z,12.46
2023-04-29T08:56:49.591Z,12.59
2023-04-29T08:59:52.483Z,12.70
2023-04-29T09:02:57.075Z,12.94
2023-04-29T09:06:01.542Z,12.84
2023-04-29T09:09:04.712Z,12.85
2023-04-29T09:12:09.673Z,12.90
2023-04-29T09:15:12.488Z,12.93
2023-04-29T09:18:48.218Z,13.05
2023-04-29T09:21:57.492Z,12.86
2023-04-29T09:25:13.190Z,13.16
2023-04-29T09:28:17.254Z,13.43
2023-04-29T09:31:28.294Z,13.75
2023-04-29T09:34:33.086Z,14.06
2023-04-29T09:37:35.879Z,14.13
2023-04-29T09:40:54.483Z,14.61
2023-04-29T09:44:08.964Z,15.05
2023-04-29T09:47:13.575Z,14.43
2023-04-29T09:50:18.433Z,14.57
2023-04-29T09:53:30.245Z,14.45
2023-04-29T09:56:49.903Z,14.86
2023-04-29T09:59:52.740Z,15.14
2023-04-29T10:02:59.488Z,15.22
2023-04-29T10:06:06.835Z,15.63
2023-04-29T10:09:15.924Z,15.61
2023-04-29T10:12:20.703Z,15.20
2023-04-29T10:15:37.921Z,15.67
2023-04-29T10:18:42.590Z,15.82
2023-04-29T10:21:47.186Z,16.11
2023-04-29T10:24:52.796Z,16.11
2023-04-29T10:27:56.406Z,16.11
2023-04-29T10:31:06.154Z,16.07
2023-04-29T10:34:09.055Z,16.02
2023-04-29T10:37:12.785Z,16.24
2023-04-29T10:40:31.098Z,16.28
2023-04-29T10:43:34.030Z,16.16
2023-04-29T10:46:38.338Z,16.22
2023-04-29T10:49:41.685Z,16.27
2023-04-29T10:52:58.229Z,16.20
2023-04-29T10:56:06.697Z,16.22
2023-04-29T10:59:18.857Z,16.30
2023-04-29T11:02:21.966Z,16.48
2023-04-29T11:05:32.625Z,16.53
2023-04-29T11:08:41.505Z,16.57
2023-04-29T11:11:53.155Z,17.34
2023-04-29T11:15:05.214Z,17.51
2023-04-29T11:18:16.420Z,17.37
2023-04-29T11:21:21.091Z,17.59
2023-04-29T11:24:31.535Z,17.74
2023-04-29T11:27:43.057Z,17.42
2023-04-29T11:30:47.234Z,17.07
2023-04-29T11:33:50.335Z,16.81
2023-04-29T11:36:54.173Z,16.70
2023-04-29T11:40:03.875Z,16.76
2023-04-29T11:43:19.677Z,16.46
2023-04-29T11:46:22.723Z,16.26
2023-04-29T11:49:31.934Z,15.99
2023-04-29T11:52:40.742Z,15.92
2023-04-29T11:55:44.072Z,15.84
2023-04-29T11:58:47.462Z,15.85
2023-04-29T12:01:51.344Z,15.64
2023-04-29T12:04:59.183Z,15.61
2023-04-29T12:08:02.390Z,15.65
2023-04-29T12:11:08.001Z,15.63
2023-04-29T12:14:11.666Z,15.59
2023-04-29T12:17:18.629Z,15.39
2023-04-29T12:20:24.714Z,15.35
2023-04-29T12:23:28.135Z,15.41
2023-04-29T12:26:36.356Z,15.63
2023-04-29T12:29:43.211Z,16.03
2023-04-29T12:32:50.098Z,16.29
2023-04-29T12:35:59.980Z,16.89
2023-04-29T12:39:13.753Z,17.04
2023-04-29T12:42:20.000Z,16.79
2023-04-29T12:45:34.679Z,16.65
2023-04-29T12:48:45.037Z,17.07
2023-04-29T12:51:54.333Z,17.64
2023-04-29T12:54:58.695Z,17.99
2023-04-29T12:58:06.261Z,18.59
2023-04-29T13:01:18.880Z,18.53
2023-04-29T13:04:32.823Z,18.96
2023-04-29T13:07:39.714Z,18.69
2023-04-29T13:10:53.692Z,19.13
2023-04-29T13:17:04.830Z,19.52
2023-04-29T13:20:15.252Z,19.66
2023-04-29T13:23:26.289Z,19.74
2023-04-29T13:26:36.672Z,19.11
2023-04-29T13:29:39.723Z,18.51
2023-04-29T13:32:49.787Z,19.14
2023-04-29T13:36:00.175Z,19.22
2023-04-29T13:39:11.426Z,18.39
2023-04-29T13:42:18.555Z,18.19
2023-04-29T13:45:21.705Z,17.92
2023-04-29T13:49:10.236Z,17.58
2023-04-29T14:02:14.957Z,17.26
2023-04-29T14:04:49.225Z,17.26
2023-04-29T14:07:54.969Z,17.26
2023-04-29T14:10:58.953Z,17.12
2023-04-29T14:14:06.217Z,17.08
2023-04-29T14:17:10.069Z,16.95
2023-04-29T14:20:16.761Z,16.85
2023-04-29T14:23:20.018Z,17.06
2023-04-29T14:26:28.281Z,16.93
2023-04-29T14:29:31.885Z,16.87
2023-04-29T14:32:34.780Z,16.87
2023-04-29T14:35:37.685Z,16.79
2023-04-29T14:38:40.820Z,17.00
2023-04-29T14:41:43.631Z,17.29
2023-04-29T14:44:46.399Z,17.59
2023-04-29T14:47:49.282Z,17.54
2023-04-29T14:50:52.172Z,17.42
2023-04-29T14:53:54.924Z,17.53
2023-04-29T14:56:57.822Z,17.40
2023-04-29T15:00:00.681Z,17.40
2023-04-29T15:03:05.430Z,17.28
2023-04-29T15:06:08.572Z,17.50
2023-04-29T15:09:11.275Z,17.82
2023-04-29T15:12:16.993Z,17.73
2023-04-29T15:15:20.467Z,17.70
2023-04-29T15:18:26.802Z,17.45
2023-04-29T15:21:30.559Z,17.50
2023-04-29T15:24:33.581Z,17.39
2023-04-29T15:27:37.383Z,17.30
2023-04-29T15:30:40.135Z,17.31
2023-04-29T15:33:43.305Z,16.94
2023-04-29T15:36:46.557Z,17.03
2023-04-29T15:39:49.266Z,17.12
2023-04-29T15:42:52.293Z,17.09
2023-04-29T15:45:56.423Z,17.24
2023-04-29T15:48:59.421Z,17.25
2023-04-29T15:52:02.652Z,16.87
2023-04-29T15:55:06.711Z,16.38
2023-04-29T15:58:09.461Z,16.49
2023-04-29T16:01:12.545Z,16.42
2023-04-29T16:04:15.318Z,16.62
2023-04-29T16:07:18.770Z,16.32
2023-04-29T16:10:21.992Z,16.04
2023-04-29T16:13:24.994Z,16.36
2023-04-29T16:16:28.162Z,16.62
2023-04-29T16:19:31.015Z,16.79
2023-04-29T16:22:36.273Z,16.90
2023-04-29T16:25:40.879Z,16.73
2023-04-29T16:28:43.778Z,16.90
2023-04-29T16:31:47.212Z,16.72
2023-04-29T16:34:50.477Z,16.75
2023-04-29T16:37:53.760Z,16.96
2023-04-29T16:40:56.790Z,16.82
2023-04-29T16:43:59.904Z,16.74
2023-04-29T16:47:03.484Z,16.89
2023-04-29T16:50:08.755Z,16.70
2023-04-29T16:53:15.833Z,16.47
2023-04-29T16:56:19.443Z,16.35
2023-04-29T16:59:22.460Z,16.23
2023-04-29T17:02:25.880Z,16.07
2023-04-29T17:05:29.138Z,15.83
2023-04-29T17:08:32.396Z,15.67
2023-04-29T17:11:35.313Z,15.67
2023-04-29T17:14:40.251Z,15.60
2023-04-29T17:17:43.500Z,15.29
2023-04-29T17:20:48.115Z,15.31
2023-04-29T17:23:53.777Z,15.41
2023-04-29T17:26:56.821Z,15.42
2023-04-29T17:29:59.980Z,15.31
2023-04-29T17:33:09.206Z,15.33
2023-04-29T17:36:15.153Z,15.17
2023-04-29T17:39:18.110Z,15.09
2023-04-29T17:42:24.276Z,14.94
2023-04-29T17:45:27.151Z,14.89
2023-04-29T17:48:30.311Z,14.81
2023-04-29T17:51:36.110Z,14.61
2023-04-29T17:54:40.466Z,14.39
2023-04-29T17:57:43.400Z,14.27
2023-04-29T18:00:46.742Z,14.18
2023-04-29T18:03:51.779Z,14.14
2023-04-29T18:06:54.702Z,14.09
2023-04-29T18:09:57.923Z,14.18
2023-04-29T18:13:03.812Z,14.18
2023-04-29T18:16:08.262Z,14.15
2023-04-29T18:19:11.465Z,14.16
2023-04-29T18:22:14.352Z,14.12
2023-04-29T18:25:17.668Z,13.96
2023-04-29T18:28:25.397Z,13.82
2023-04-29T18:31:30.911Z,13.64
2023-04-29T18:34:33.838Z,13.56
2023-04-29T18:37:36.684Z,13.57
2023-04-29T18:40:39.812Z,13.44
2023-04-29T18:43:42.567Z,13.42
2023-04-29T18:46:45.522Z,13.40
2023-04-29T18:49:48.679Z,13.43
2023-04-29T18:52:51.488Z,13.38
2023-04-29T18:55:54.580Z,13.34
2023-04-29T18:58:57.983Z,13.42
2023-04-29T19:02:01.316Z,13.36
2023-04-29T19:05:07.053Z,13.36
2023-04-29T19:08:10.032Z,13.35
2023-04-29T19:11:13.017Z,13.44
2023-04-29T19:14:15.883Z,13.44
2023-04-29T19:17:18.766Z,13.35
2023-04-29T19:20:21.660Z,13.33
2023-04-29T19:23:24.622Z,13.35
2023-04-29T19:26:27.599Z,13.35
2023-04-29T19:29:30.329Z,13.30
2023-04-29T19:32:33.288Z,13.29
2023-04-29T19:35:36.170Z,13.19
2023-04-29T19:38:39.077Z,13.13
2023-04-29T19:41:42.085Z,13.13
2023-04-29T19:44:45.205Z,13.05
2023-04-29T19:47:50.311Z,13.09
2023-04-29T19:50:53.408Z,13.10
2023-04-29T19:53:56.976Z,13.15
2023-04-29T19:57:00.270Z,13.14
2023-04-29T20:00:04.585Z,13.06
2023-04-29T20:03:09.048Z,13.03
2023-04-29T20:06:12.110Z,12.92
2023-04-29T20:09:16.010Z,12.81
2023-04-29T20:12:18.983Z,12.80
2023-04-29T20:15:22.025Z,12.75
2023-04-29T20:18:24.957Z,12.78
2023-04-29T20:21:28.132Z,12.72
2023-04-29T20:24:31.075Z,12.72
2023-04-29T20:27:34.052Z,12.51
2023-04-29T20:30:37.204Z,12.45
2023-04-29T20:33:40.015Z,12.41
2023-04-29T20:36:42.959Z,12.38
2023-04-29T20:39:46.965Z,12.33
2023-04-29T20:42:50.051Z,12.25
2023-04-29T20:45:53.147Z,12.26
2023-04-29T20:48:56.026Z,12.18
2023-04-29T20:52:00.280Z,12.15
2023-04-29T20:55:03.407Z,11.98
2023-04-29T20:58:06.361Z,11.95
2023-04-29T21:01:09.465Z,12.05
2023-04-29T21:04:12.321Z,11.99
2023-04-29T21:07:15.196Z,11.92
2023-04-29T21:10:18.309Z,11.95
2023-04-29T21:13:21.102Z,11.94
2023-04-29T21:16:23.864Z,11.97
2023-04-29T21:19:26.790Z,11.97
2023-04-29T21:22:29.599Z,11.97
2023-04-29T21:25:32.293Z,11.95
2023-04-29T21:28:35.098Z,11.92
2023-04-29T21:31:37.922Z,11.85
2023-04-29T21:34:41.027Z,11.82
2023-04-29T21:37:46.096Z,11.80
2023-04-29T21:40:48.973Z,11.70
2023-04-29T21:43:53.417Z,11.67
2023-04-29T21:46:57.132Z,11.64
2023-04-29T21:50:01.005Z,11.71
2023-04-29T21:53:03.884Z,11.73
2023-04-29T21:56:07.262Z,11.70
2023-04-29T21:59:09.967Z,11.75
2023-04-29T22:02:22.353Z,11.79
2023-04-29T22:05:25.548Z,11.79
2023-04-29T22:08:28.376Z,11.77
2023-04-29T22:11:31.401Z,11.82
2023-04-29T22:14:34.226Z,11.70
2023-04-29T22:17:37.065Z,11.72
2023-04-29T22:20:39.868Z,11.79
2023-04-29T22:23:43.128Z,11.88
2023-04-29T22:26:46.802Z,11.75
2023-04-29T22:29:50.051Z,11.76
2023-04-29T22:32:52.841Z,11.78
2023-04-29T22:35:55.772Z,11.93
2023-04-29T22:38:59.098Z,11.92
2023-04-29T22:42:04.962Z,11.89
2023-04-29T22:45:08.556Z,11.90
2023-04-29T22:48:11.271Z,11.75
2023-04-29T22:51:14.107Z,11.66
2023-04-29T22:54:16.928Z,11.69
2023-04-29T22:57:19.755Z,11.69
2023-04-29T23:00:22.687Z,11.69
2023-04-29T23:03:25.837Z,11.58
2023-04-29T23:06:29.002Z,11.70
2023-04-29T23:09:32.008Z,11.68
2023-04-29T23:12:35.033Z,11.67
2023-04-29T23:15:37.961Z,11.64
2023-04-29T23:18:41.070Z,11.69
2023-04-29T23:21:44.131Z,11.74
2023-04-29T23:24:47.012Z,11.68
2023-04-29T23:27:49.804Z,11.63
2023-04-29T23:30:52.693Z,11.63
2023-04-29T23:33:55.691Z,11.66
2023-04-29T23:36:58.840Z,11.68
2023-04-29T23:40:01.701Z,11.64
2023-04-29T23:43:04.685Z,11.62
2023-04-29T23:46:07.459Z,11.57
2023-04-29T23:49:10.932Z,11.61
2023-04-29T23:52:13.870Z,11.55
2023-04-29T23:55:16.646Z,11.47
2023-04-29T23:58:19.567Z,11.47
